首页
METAR-TAF:

METAR-TAF

机场 :

McEntire Joint National Guard Base

Eastover, 南卡罗来纳州, 美国

纬度: 33-55N, 经度: 080-48W, 海拔: 77米

当前天气观测

该预报发布于15分钟前的13:06 UTC
风速7节,风向西南
温度 25°C
湿度 89%
气压 1017 hPa
能見度: 16.1公里
多云层高于900英尺
多云层高于15000英尺

METAR: KMMT 171306Z 23007KT 10SM BKN009 BKN150 25/23 A3003 RMK AO2A SLP170 $

时间: 09:21 (13:21 UTC)

预报

该预报发布于1小时和34分钟前的11:47 UTC
预报有效从17日的 11点(UTC)到 18日的 13点(UTC)
风速节,风向
能见度10公里或以上
多云层高于800英尺
阴天层高于15000英尺
成为
从 17日的 13点(UTC)到 17日的 14点(UTC)
风速9节,风向西南
能见度10公里或以上
散云层高于3000英尺
多云层高于15000英尺
成为
从 17日的 17点(UTC)到 17日的 18点(UTC)
风速9节,风向西南
能見度: 9000
多云层高于2500英尺
多云层高于15000英尺
小阵雨
短暂存在
从 17日的 18点(UTC)到 18日的 01点(UTC)
风速12节,风向多变,有时为18节阵风
能見度: 6000
多云层高于3000英尺, 积雨云.
阴天层高于4500英尺
雷暴, 小雨
成为
从 18日的 02点(UTC)到 18日的 03点(UTC)
风速3节,风向西南
能见度10公里或以上
散云层高于3500英尺

TAF: KMMT 171147Z 1711/1813 00000KT 9999 BKN008 OVC150 QNH2995INS BECMG 1713/1714 22009KT 9999 SCT030 BKN150 QNH2992INS BECMG 1717/1718 23009KT 9000 -SHRA BKN025 BKN150 QNH2988INS TEMPO 1718/1801 VRB12G18KT 6000 -TSRA BKN030CB OVC045 BECMG 1802/1803 23003KT 9999 NSW SCT035 QNH2985INS TX33/1720Z TN23/1711Z

超过4000个机场的气象观测和天气预报(METAR&TAF报告)。

可查询的气象台以黄色和红色小点在地图上表示。

将鼠标移到小点上方,可查看气象台名称。

然后点击查看天气观测和预报。

如需切换地图:点击带黑十字的绿色按钮放大地图;点击带横线的绿色按钮缩小地图;或者点击绿色箭头查看邻近地区的地图。


METAR-TAF: